Time;durP1;ratioP1;P1;durP2;ratioP2;P2;SDS_P1;SDS_P2;PMS_P1;PMS_P2;Temp;Humidity;BMP_temperature;BMP_pressure;BME280_temperature;BME280_humidity;BME280_pressure;Samples;Min_cycle;Max_cycle;Signal;HPM_P1;HPM_P2
2022/05/22 00:00:07;;;;;;;3.53;1.33;;;;;;;-145.69;100.00;71951.63;5073153;28;20205;-76
2022/05/22 00:02:35;;;;;;;4.80;1.23;;;;;;;-145.69;100.00;71947.66;5072683;28;20199;-76
2022/05/22 00:05:02;;;;;;;2.33;1.53;;;;;;;-145.69;100.00;71963.56;5072975;28;20202;-77
2022/05/22 00:07:28;;;;;;;6.67;1.63;;;;;;;-145.69;100.00;71983.47;5073072;28;20321;-77
2022/05/22 00:09:55;;;;;;;2.80;1.30;;;;;;;-145.69;100.00;71993.44;5073097;28;20222;-76
2022/05/22 00:12:22;;;;;;;3.87;1.60;;;;;;;-145.69;100.00;72015.31;5072824;28;20661;-76
2022/05/22 00:14:48;;;;;;;5.07;1.43;;;;;;;-145.69;100.00;72019.31;5072766;28;20201;-76
2022/05/22 00:17:15;;;;;;;2.97;1.70;;;;;;;-145.69;100.00;71999.41;5071535;28;20223;-76
2022/05/22 00:19:43;;;;;;;5.40;1.73;;;;;;;-145.69;100.00;72005.38;5072876;28;20205;-76
2022/05/22 00:22:09;;;;;;;5.87;1.70;;;;;;;-145.69;100.00;72011.34;5073014;28;20210;-76
2022/05/22 00:24:36;;;;;;;6.97;1.70;;;;;;;-145.69;100.00;72001.38;5072773;28;20242;-75
2022/05/22 00:27:04;;;;;;;5.57;1.70;;;;;;;-145.69;100.00;71991.44;5072484;28;20306;-77
2022/05/22 00:29:31;;;;;;;2.97;1.73;;;;;;;-145.69;100.00;71987.47;5070975;28;20203;-77
2022/05/22 00:31:58;;;;;;;2.00;1.30;;;;;;;-145.69;100.00;71989.44;5072466;28;20657;-76
2022/05/22 00:34:25;;;;;;;7.17;1.50;;;;;;;-145.69;100.00;71995.41;5072304;28;20199;-76
2022/05/22 00:36:53;;;;;;;5.20;1.63;;;;;;;-145.69;100.00;71999.41;5072540;28;20611;-76
2022/05/22 00:39:19;;;;;;;2.43;1.60;;;;;;;-145.69;100.00;71997.41;5072374;28;20199;-75
2022/05/22 00:41:50;;;;;;;2.50;1.63;;;;;;;-145.69;100.00;71997.41;5072699;28;20202;-76
2022/05/22 00:44:17;;;;;;;3.63;1.43;;;;;;;-145.69;100.00;71991.44;5072318;28;20264;-76
2022/05/22 00:46:46;;;;;;;4.67;1.63;;;;;;;-145.69;100.00;71995.41;5072673;28;20198;-77
2022/05/22 00:49:15;;;;;;;6.07;1.90;;;;;;;-145.69;100.00;71999.41;5072716;28;20198;-76
2022/05/22 00:51:46;;;;;;;5.47;1.70;;;;;;;-145.69;100.00;71999.41;5072592;28;20195;-76
2022/05/22 00:54:18;;;;;;;2.27;1.53;;;;;;;-145.69;100.00;71999.41;5072329;28;20198;-77
2022/05/22 00:56:49;;;;;;;6.70;1.50;;;;;;;-145.69;100.00;72001.38;5070993;28;20198;-77
2022/05/22 00:59:20;;;;;;;3.27;1.50;;;;;;;-145.69;100.00;71991.44;5072691;28;20199;-76
2022/05/22 01:01:48;;;;;;;5.17;1.67;;;;;;;-145.69;100.00;71983.47;5072304;28;20199;-76
2022/05/22 01:04:20;;;;;;;2.37;1.40;;;;;;;-145.69;100.00;71979.50;5072449;28;20237;-76
2022/05/22 01:06:47;;;;;;;2.50;1.40;;;;;;;-145.69;100.00;71981.50;5072475;28;20233;-76
2022/05/22 01:09:15;;;;;;;2.27;1.30;;;;;;;-145.69;100.00;71975.50;5072270;28;20202;-76
2022/05/22 01:11:42;;;;;;;4.77;1.40;;;;;;;-145.69;100.00;71967.56;5072042;28;20696;-76
2022/05/22 01:14:11;;;;;;;6.97;2.33;;;;;;;-145.69;100.00;71973.53;5072252;28;20201;-76
2022/05/22 01:16:38;;;;;;;3.03;1.43;;;;;;;-145.69;100.00;71979.50;5072477;28;20301;-76
2022/05/22 01:19:11;;;;;;;6.97;1.87;;;;;;;-145.69;100.00;71987.47;5072355;28;20209;-76
2022/05/22 01:21:37;;;;;;;4.87;1.40;;;;;;;-145.69;100.00;71993.44;5072243;28;20261;-76
2022/05/22 01:24:07;;;;;;;6.03;1.70;;;;;;;-145.69;100.00;71987.47;5071727;28;20770;-76
2022/05/22 01:26:34;;;;;;;4.73;1.23;;;;;;;-145.69;100.00;71993.44;5066486;28;20192;-76
2022/05/22 01:29:01;;;;;;;2.77;1.70;;;;;;;-145.69;100.00;71995.41;5055260;28;20234;-76
2022/05/22 01:31:27;;;;;;;2.77;1.50;;;;;;;-145.69;100.00;71991.44;5078348;28;20217;-76
2022/05/22 01:33:54;;;;;;;5.40;1.67;;;;;;;-145.69;100.00;71993.44;5086487;28;20295;-76
2022/05/22 01:36:20;;;;;;;7.47;1.50;;;;;;;-145.69;100.00;71999.41;5075605;28;20210;-77
2022/05/22 01:38:47;;;;;;;5.30;1.70;;;;;;;-145.69;100.00;71997.41;5075475;28;20626;-77
2022/05/22 01:41:15;;;;;;;3.83;1.80;;;;;;;-145.69;100.00;71995.41;5075653;28;20289;-76
2022/05/22 01:43:41;;;;;;;4.80;1.70;;;;;;;-145.69;100.00;71993.44;5075751;28;20225;-77
2022/05/22 01:46:08;;;;;;;2.50;1.70;;;;;;;-145.69;100.00;71997.41;5073896;28;20199;-76
2022/05/22 01:48:35;;;;;;;4.83;1.60;;;;;;;-145.69;100.00;71993.44;5057485;28;20318;-77
2022/05/22 01:51:01;;;;;;;3.27;1.93;;;;;;;-145.69;100.00;71991.44;5060014;28;20562;-77
2022/05/22 01:53:28;;;;;;;5.83;2.00;;;;;;;-145.69;100.00;72003.38;5075494;28;20209;-76
2022/05/22 01:55:54;;;;;;;5.57;2.10;;;;;;;-145.69;100.00;72003.38;5075476;28;20194;-76
2022/05/22 01:58:22;;;;;;;6.33;1.57;;;;;;;-145.69;100.00;71999.41;5075410;28;20290;-76
2022/05/22 02:00:48;;;;;;;7.07;1.80;;;;;;;-145.69;100.00;71999.41;5074993;28;20195;-76
2022/05/22 02:03:15;;;;;;;3.90;1.70;;;;;;;-145.69;100.00;72007.34;5074891;28;20202;-76
2022/05/22 02:05:43;;;;;;;6.50;1.90;;;;;;;-145.69;100.00;72011.34;5075308;28;20203;-76
2022/05/22 02:08:25;;;;;;;7.17;1.77;;;;;;;-145.69;100.00;72009.34;5075388;28;20242;-76
2022/05/22 02:10:55;;;;;;;5.63;1.83;;;;;;;-145.69;100.00;71993.44;5075247;28;20199;-76
2022/05/22 02:13:26;;;;;;;3.87;1.83;;;;;;;-145.69;100.00;71997.41;5073805;28;20202;-77
2022/05/22 02:15:53;;;;;;;2.93;1.83;;;;;;;-145.69;100.00;71999.41;5074983;28;20560;-76
2022/05/22 02:18:19;;;;;;;2.93;1.80;;;;;;;-145.69;100.00;71997.41;5075083;28;20208;-77
2022/05/22 02:20:47;;;;;;;2.83;1.77;;;;;;;-145.69;100.00;71993.44;5075066;28;20195;-76
2022/05/22 02:23:15;;;;;;;4.07;1.90;;;;;;;-145.69;100.00;72003.38;5074665;28;20700;-76
2022/05/22 02:25:44;;;;;;;7.10;1.93;;;;;;;-145.69;100.00;72003.38;5074531;28;20198;-77
2022/05/22 02:28:14;;;;;;;2.77;1.60;;;;;;;-145.69;100.00;71999.41;5074598;28;20226;-76
2022/05/22 02:30:45;;;;;;;3.07;1.63;;;;;;;-145.69;100.00;72003.38;5074988;28;20199;-77
2022/05/22 02:33:11;;;;;;;7.53;1.67;;;;;;;-145.69;100.00;71993.44;5074964;28;20210;-77
2022/05/22 02:35:38;;;;;;;4.63;1.90;;;;;;;-145.69;100.00;71989.44;5072750;28;20465;-76
2022/05/22 02:38:05;;;;;;;6.63;1.90;;;;;;;-145.69;100.00;71995.41;5073879;28;20202;-77
2022/05/22 02:40:33;;;;;;;3.07;1.90;;;;;;;-145.69;100.00;71975.50;5074356;28;20203;-77
2022/05/22 02:43:00;;;;;;;4.20;1.97;;;;;;;-145.69;100.00;71947.66;5074401;28;20748;-77
2022/05/22 02:45:30;;;;;;;3.43;1.90;;;;;;;-145.69;100.00;71911.84;5074358;28;20201;-76
2022/05/22 02:47:58;;;;;;;6.77;1.50;;;;;;;-145.69;100.00;71911.84;5074479;28;20237;-76
2022/05/22 02:50:26;;;;;;;5.70;1.70;;;;;;;-145.69;100.00;71899.88;5074388;28;20203;-76
2022/05/22 02:52:52;;;;;;;3.80;1.67;;;;;;;-145.69;100.00;71899.88;5074318;28;20205;-77
2022/05/22 02:55:19;;;;;;;4.93;1.70;;;;;;;-145.69;100.00;71903.88;5074230;28;20224;-76
2022/05/22 02:57:46;;;;;;;3.30;1.80;;;;;;;-145.69;100.00;71899.88;5073815;28;20573;-76
2022/05/22 03:00:16;;;;;;;3.10;1.60;;;;;;;-145.69;100.00;71897.91;5074261;28;20209;-76
2022/05/22 03:02:43;;;;;;;3.77;1.70;;;;;;;-145.69;100.00;71899.88;5074186;28;20207;-77
2022/05/22 03:05:15;;;;;;;3.63;1.53;;;;;;;-145.69;100.00;71891.94;5074174;28;20206;-77
2022/05/22 03:07:42;;;;;;;4.37;1.77;;;;;;;-145.69;100.00;71887.94;5073908;28;20244;-76
2022/05/22 03:10:11;;;;;;;5.57;1.80;;;;;;;-145.69;100.00;71889.94;5073706;28;20554;-76
2022/05/22 03:12:37;;;;;;;4.10;1.50;;;;;;;-145.69;100.00;71889.94;5073612;28;20201;-77
2022/05/22 03:15:06;;;;;;;2.77;1.43;;;;;;;-145.69;100.00;71897.91;5074117;28;20206;-77
2022/05/22 03:17:33;;;;;;;2.83;1.70;;;;;;;-145.69;100.00;71901.88;5073842;28;20565;-77
2022/05/22 03:20:01;;;;;;;3.83;1.60;;;;;;;-145.69;100.00;71923.78;5073978;28;20199;-76
2022/05/22 03:22:31;;;;;;;7.43;1.70;;;;;;;-145.69;100.00;71915.81;5073600;28;20601;-76
2022/05/22 03:24:58;;;;;;;2.73;2.00;;;;;;;-145.69;100.00;71931.72;5073853;28;20626;-76
2022/05/22 03:27:26;;;;;;;3.53;1.70;;;;;;;-145.69;100.00;71925.75;5072460;28;20210;-75
2022/05/22 03:29:53;;;;;;;6.23;1.77;;;;;;;-145.69;100.00;71933.72;5073763;28;20248;-76
2022/05/22 03:32:20;;;;;;;4.63;1.70;;;;;;;-145.69;100.00;71951.63;5073653;28;20206;-76
2022/05/22 03:34:46;;;;;;;4.60;1.70;;;;;;;-145.69;100.00;71961.59;5073123;28;20195;-77
2022/05/22 03:37:16;;;;;;;5.50;1.90;;;;;;;-145.69;100.00;71945.66;5073409;28;20272;-77
2022/05/22 03:39:44;;;;;;;8.37;1.77;;;;;;;-145.69;100.00;71927.75;5073510;28;20198;-77
2022/05/22 03:42:13;;;;;;;6.27;2.27;;;;;;;-145.69;100.00;71931.72;5069898;28;20206;-77
2022/05/22 03:44:39;;;;;;;3.50;2.43;;;;;;;-145.69;100.00;71911.84;5053606;28;20218;-77
2022/05/22 03:47:06;;;;;;;4.90;1.90;;;;;;;-145.69;100.00;71915.81;5070612;28;20195;-76
2022/05/22 03:49:33;;;;;;;8.53;2.20;;;;;;;-145.69;100.00;71935.72;5073250;28;20231;-76
2022/05/22 03:51:59;;;;;;;6.10;1.90;;;;;;;-145.69;100.00;71943.69;5073626;28;20298;-76
2022/05/22 03:54:26;;;;;;;4.97;2.03;;;;;;;-145.69;100.00;71933.72;5072856;28;20580;-76
2022/05/22 03:56:54;;;;;;;2.50;1.70;;;;;;;-145.69;100.00;71929.75;5073223;28;20569;-76
2022/05/22 03:59:20;;;;;;;3.70;2.10;;;;;;;-145.69;100.00;71923.78;5072359;28;20195;-76
2022/05/22 04:01:50;;;;;;;8.33;2.37;;;;;;;-145.69;100.00;71911.84;5072475;28;20203;-76
2022/05/22 04:04:17;;;;;;;4.47;1.67;;;;;;;-145.69;100.00;71911.84;5072735;28;20194;-76
2022/05/22 04:06:44;;;;;;;6.57;2.20;;;;;;;-145.69;100.00;71889.94;5073000;28;20195;-76
2022/05/22 04:09:10;;;;;;;5.70;2.20;;;;;;;-145.69;100.00;71889.94;5073197;28;20233;-76
2022/05/22 04:11:40;;;;;;;4.40;2.43;;;;;;;-145.69;100.00;71883.97;5072945;28;20228;-77
2022/05/22 04:14:08;;;;;;;5.10;2.33;;;;;;;-145.69;100.00;71880.00;5073030;28;20565;-77
2022/05/22 04:16:35;;;;;;;6.72;2.40;;;;;;;-145.69;100.00;71862.06;5072015;28;20442;-76
2022/05/22 04:19:01;;;;;;;7.00;1.93;;;;;;;-145.69;100.00;71856.09;5073218;28;20202;-77
2022/05/22 04:21:27;;;;;;;7.63;1.93;;;;;;;-145.69;100.00;71860.09;5073024;28;20199;-76
2022/05/22 04:26:38;;;;;;;6.73;1.90;;;;;;;-145.69;100.00;71838.19;5072872;28;20205;-76
2022/05/22 04:29:08;;;;;;;5.97;2.10;;;;;;;-145.69;100.00;71836.22;5071375;28;20225;-76
2022/05/22 04:31:35;;;;;;;5.27;1.83;;;;;;;-145.69;100.00;71830.25;5072921;28;20195;-76
2022/05/22 04:34:01;;;;;;;4.87;1.90;;;;;;;-145.69;100.00;71832.22;5072488;28;20300;-76
2022/05/22 04:36:28;;;;;;;4.50;2.20;;;;;;;-145.69;100.00;71798.41;5072448;28;20658;-77
2022/05/22 04:38:54;;;;;;;7.37;2.13;;;;;;;-145.69;100.00;71784.47;5072023;28;20676;-76
2022/05/22 04:41:21;;;;;;;5.73;1.73;;;;;;;-145.69;100.00;71762.56;5072030;28;20195;-76
2022/05/22 04:43:48;;;;;;;6.67;1.97;;;;;;;-145.69;100.00;71746.66;5072428;28;20256;-76
2022/05/22 04:46:15;;;;;;;7.83;1.80;;;;;;;-145.69;100.00;71734.72;5072766;28;20205;-76
2022/05/22 04:48:42;;;;;;;5.63;2.10;;;;;;;-145.69;100.00;71710.84;5071930;28;20464;-77
2022/05/22 04:51:09;;;;;;;4.70;1.80;;;;;;;-145.69;100.00;71696.91;5072751;28;20198;-76
2022/05/22 04:53:35;;;;;;;3.40;1.70;;;;;;;-145.69;100.00;71684.97;5072356;28;20198;-77
2022/05/22 04:56:02;;;;;;;3.83;1.90;;;;;;;-145.69;100.00;71669.03;5072512;28;20206;-76
2022/05/22 04:58:28;;;;;;;4.87;1.90;;;;;;;-145.69;100.00;71653.13;5072411;28;20696;-77
2022/05/22 05:00:55;;;;;;;5.10;1.60;;;;;;;-145.69;100.00;71641.19;5072707;28;20195;-76
2022/05/22 05:03:23;;;;;;;7.10;1.90;;;;;;;-145.69;100.00;71631.25;5072424;28;20646;-76
2022/05/22 05:05:54;;;;;;;3.77;1.80;;;;;;;-145.69;100.00;71629.25;5070446;28;20199;-77
2022/05/22 05:08:20;;;;;;;4.63;1.90;;;;;;;-145.69;100.00;71625.25;5076099;28;20227;-76
2022/05/22 05:10:47;;;;;;;4.37;1.93;;;;;;;-145.69;100.00;71609.34;5076279;28;20206;-76
2022/05/22 05:13:13;;;;;;;5.37;1.83;;;;;;;-145.69;100.00;71593.44;5076185;28;20194;-76
2022/05/22 05:15:40;;;;;;;1.80;1.33;;;;;;;-145.69;100.00;71583.47;5076300;28;20222;-76
2022/05/22 05:18:07;;;;;;;4.93;1.50;;;;;;;-145.69;100.00;71575.50;5075936;28;20206;-76
2022/05/22 05:20:36;;;;;;;3.63;1.87;;;;;;;-145.69;100.00;71559.59;5076155;28;20333;-76
2022/05/22 05:23:04;;;;;;;7.07;2.00;;;;;;;-145.69;100.00;71549.66;5075699;28;20210;-77
2022/05/22 05:25:31;;;;;;;4.50;2.10;;;;;;;-145.69;100.00;71519.81;5076123;28;20206;-76
2022/05/22 05:28:00;;;;;;;6.93;1.70;;;;;;;-145.69;100.00;71489.94;5076099;28;20199;-77
2022/05/22 05:30:27;;;;;;;8.13;1.60;;;;;;;-145.69;100.00;71466.06;5075794;28;20202;-76
2022/05/22 05:33:00;;;;;;;3.90;1.57;;;;;;;-145.69;100.00;71426.28;5076172;28;20218;-76
2022/05/22 05:35:29;;;;;;;3.63;1.60;;;;;;;-145.69;96.36;71378.50;5075476;28;20534;-77
2022/05/22 05:37:59;;;;;;;3.25;1.20;;;;;;;-145.69;89.02;71283.00;5075751;28;20272;-77
2022/05/22 05:40:25;;;;;;;7.10;1.60;;;;;;;-145.69;85.12;71219.34;5075804;28;20210;-76
2022/05/22 05:42:52;;;;;;;4.97;1.30;;;;;;;-145.69;81.20;71153.66;5075067;28;20194;-77
2022/05/22 05:45:19;;;;;;;3.10;1.13;;;;;;;-145.69;79.46;71111.88;5073753;28;20201;-76
2022/05/22 05:47:47;;;;;;;3.88;1.35;;;;;;;-145.69;75.92;71068.13;5057117;28;20199;-77
2022/05/22 05:50:14;;;;;;;2.10;1.10;;;;;;;-145.69;74.45;71060.16;5055586;28;20231;-77
2022/05/22 05:52:42;;;;;;;3.97;1.00;;;;;;;-145.69;71.91;71008.41;5055399;28;20207;-77
2022/05/22 05:55:14;;;;;;;2.03;1.02;;;;;;;-145.69;68.85;70950.72;5070710;28;20198;-76
2022/05/22 05:57:40;;;;;;;7.00;1.27;;;;;;;-145.69;70.20;70930.81;5075588;28;20209;-77
2022/05/22 06:00:08;;;;;;;1.52;0.90;;;;;;;-145.69;67.57;70849.25;5075413;28;20206;-75
2022/05/22 06:02:37;;;;;;;2.85;0.90;;;;;;;-145.69;68.43;70891.03;5075322;28;20203;-75
2022/05/22 06:05:04;;;;;;;2.10;0.88;;;;;;;-145.69;68.53;70881.09;5075200;28;20534;-75
2022/05/22 06:07:30;;;;;;;3.03;1.40;;;;;;;-145.69;66.40;70833.34;5075174;28;20202;-75
2022/05/22 06:09:58;;;;;;;0.93;0.80;;;;;;;-145.69;63.41;70741.81;5073637;28;20570;-74
2022/05/22 06:12:25;;;;;;;1.95;0.90;;;;;;;-145.69;65.54;70757.72;5075227;28;20203;-75
2022/05/22 06:14:52;;;;;;;2.63;0.80;;;;;;;-145.69;66.89;70793.53;5075025;28;20199;-75
2022/05/22 06:17:18;;;;;;;3.92;0.95;;;;;;;-145.69;64.00;70805.47;5074400;28;20194;-74
2022/05/22 06:19:58;;;;;;;7.50;0.80;;;;;;;-145.69;66.52;70833.34;5075215;28;20213;-76
2022/05/22 06:22:26;;;;;;;1.83;0.80;;;;;;;-145.69;66.02;70821.41;5075177;28;20210;-75
2022/05/22 06:24:54;;;;;;;5.53;0.70;;;;;;;-145.69;65.38;70797.53;5074336;28;20233;-74
2022/05/22 06:27:20;;;;;;;2.05;0.77;;;;;;;-145.69;62.61;70783.59;5074861;28;20237;-74
2022/05/22 06:29:49;;;;;;;4.40;1.00;;;;;;;-145.69;65.01;70801.50;5073317;28;20495;-75
2022/05/22 06:32:18;;;;;;;2.22;0.90;;;;;;;-145.69;65.45;70841.28;5074655;28;20684;-74
2022/05/22 06:34:47;;;;;;;2.22;0.90;;;;;;;-145.69;62.68;70845.28;5074945;28;20214;-75
2022/05/22 06:37:16;;;;;;;6.78;1.00;;;;;;;-145.69;65.36;70912.91;5074757;28;20203;-74
2022/05/22 06:39:53;;;;;;;3.15;0.90;;;;;;;-145.69;65.73;70819.41;5074717;28;20206;-75
2022/05/22 06:42:25;;;;;;;2.17;0.80;;;;;;;-145.69;66.88;70817.41;5074297;28;20229;-75
2022/05/22 06:45:04;;;;;;;2.95;0.70;;;;;;;-145.69;63.80;70749.78;5074878;28;20210;-75
2022/05/22 06:47:31;;;;;;;1.77;0.65;;;;;;;-145.69;62.39;70799.50;5074636;28;20206;-75
2022/05/22 06:49:58;;;;;;;1.35;0.90;;;;;;;-145.69;65.27;70877.09;5074480;28;20249;-75
2022/05/22 06:52:25;;;;;;;3.58;1.40;;;;;;;-145.69;67.80;70833.34;5074303;28;20207;-75
2022/05/22 06:54:52;;;;;;;2.45;0.90;;;;;;;-145.69;67.08;70837.31;5074049;28;20206;-75
2022/05/22 06:57:21;;;;;;;2.10;1.00;;;;;;;-145.69;64.26;70815.44;5074018;28;20558;-74
2022/05/22 06:59:49;;;;;;;4.95;1.60;;;;;;;-145.69;65.44;70801.50;5074203;28;20198;-75
2022/05/22 07:02:17;;;;;;;5.07;0.90;;;;;;;-145.69;62.35;70771.66;5074210;28;20413;-74
2022/05/22 07:04:44;;;;;;;2.28;0.80;;;;;;;-145.69;62.76;70745.78;5074180;28;20226;-75
2022/05/22 07:07:11;;;;;;;3.05;0.90;;;;;;;-145.69;61.00;70717.94;5073874;28;20199;-75
2022/05/22 07:09:38;;;;;;;4.10;0.98;;;;;;;-145.69;59.24;70763.69;5073824;28;20253;-74
2022/05/22 07:12:18;;;;;;;1.65;0.80;;;;;;;-145.69;61.75;70751.75;5074048;28;20203;-75
2022/05/22 07:14:45;;;;;;;3.55;0.80;;;;;;;-145.69;59.31;70773.66;5073662;28;20207;-74
2022/05/22 07:17:21;;;;;;;2.17;0.90;;;;;;;-145.69;60.18;70749.78;5073943;28;20199;-75
2022/05/22 07:19:50;;;;;;;2.55;0.98;;;;;;;-145.69;56.41;70706.00;5053882;28;20203;-75
2022/05/22 07:22:16;;;;;;;1.52;0.85;;;;;;;-145.69;61.64;70668.19;5053694;28;20229;-75
2022/05/22 07:24:43;;;;;;;1.67;0.90;;;;;;;-145.69;60.06;70646.31;5053631;28;20729;-75
2022/05/22 07:27:09;;;;;;;1.48;0.93;;;;;;;-145.69;58.18;70622.44;5053808;28;20199;-76
2022/05/22 07:29:37;;;;;;;3.30;1.13;;;;;;;-145.69;57.38;70620.44;5054769;28;20225;-75
2022/05/22 07:32:05;;;;;;;2.63;0.70;;;;;;;-145.69;58.68;70618.47;5073456;28;20679;-75
2022/05/22 07:34:33;;;;;;;4.43;0.80;;;;;;;-145.69;57.10;70588.63;5073605;28;20203;-75
2022/05/22 07:37:02;;;;;;;1.70;0.68;;;;;;;-145.69;52.41;70604.53;5073246;28;20437;-75
2022/05/22 07:39:29;;;;;;;3.60;0.80;;;;;;;-145.69;55.48;70556.78;5073590;28;20206;-77
2022/05/22 07:41:56;;;;;;;3.22;0.98;;;;;;;-145.69;57.38;70558.78;5072995;28;20205;-75
2022/05/22 07:44:22;;;;;;;1.23;0.80;;;;;;;-145.69;56.13;70582.66;5073508;28;20199;-76
2022/05/22 07:46:49;;;;;;;3.17;0.82;;;;;;;-145.69;52.15;70538.88;5073314;28;20248;-74
2022/05/22 07:52:03;;;;;;;2.30;0.70;;;;;;;-145.69;55.17;70602.56;5072601;28;20541;-75
2022/05/22 07:54:32;;;;;;;1.70;0.80;;;;;;;-145.69;58.13;70558.78;5055810;28;20214;-75
2022/05/22 07:56:59;;;;;;;1.33;0.82;;;;;;;-145.69;54.22;70566.75;5053640;28;20206;-75
2022/05/22 07:59:25;;;;;;;1.55;0.82;;;;;;;-145.69;56.67;70558.78;5053057;28;20280;-76
2022/05/22 08:01:52;;;;;;;2.03;0.90;;;;;;;-145.69;54.48;70507.06;5053065;28;20202;-75
2022/05/22 08:04:18;;;;;;;1.50;0.70;;;;;;;-145.69;57.06;70485.16;5065072;28;20660;-76
2022/05/22 08:06:44;;;;;;;2.47;0.90;;;;;;;-145.69;53.00;70522.97;5073203;28;20205;-75
2022/05/22 08:09:12;;;;;;;1.52;0.93;;;;;;;-145.69;52.53;70554.81;5072997;28;20226;-75
2022/05/22 08:11:39;;;;;;;2.25;0.70;;;;;;;-145.69;58.91;70503.06;5073056;28;20226;-76
2022/05/22 08:14:05;;;;;;;1.55;0.80;;;;;;;-145.69;54.91;70520.97;5072939;28;20438;-76
2022/05/22 08:16:31;;;;;;;2.15;0.80;;;;;;;-145.69;54.49;70558.78;5072491;28;20728;-75
2022/05/22 08:18:58;;;;;;;3.35;0.80;;;;;;;-145.69;56.29;70540.88;5073034;28;20228;-75
2022/05/22 08:21:24;;;;;;;1.00;0.80;;;;;;;-145.69;57.08;70538.88;5073055;28;20206;-76
2022/05/22 08:23:51;;;;;;;2.50;0.77;;;;;;;-145.69;54.01;70528.94;5072636;28;20581;-75
2022/05/22 08:26:18;;;;;;;3.47;0.90;;;;;;;-145.69;57.43;70487.16;5072830;28;20205;-75
2022/05/22 08:28:45;;;;;;;1.58;0.73;;;;;;;-145.69;55.57;70522.97;5072462;28;20199;-75
2022/05/22 08:31:12;;;;;;;1.30;0.70;;;;;;;-145.69;53.09;70493.13;5072930;28;20230;-75
2022/05/22 08:33:38;;;;;;;1.92;0.80;;;;;;;-145.69;54.45;70497.09;5072849;28;20248;-76
2022/05/22 08:36:05;;;;;;;2.88;0.77;;;;;;;-145.69;53.10;70534.91;5072715;28;20672;-78
2022/05/22 08:38:31;;;;;;;2.67;0.80;;;;;;;-145.69;54.74;70582.66;5072815;28;20204;-75
2022/05/22 08:41:08;;;;;;;1.73;1.10;;;;;;;-145.69;57.34;70574.69;5074641;28;20554;-75
2022/05/22 08:43:39;;;;;;;2.33;1.20;;;;;;;-145.69;54.91;70515.00;5076980;28;20224;-75
2022/05/22 08:46:11;;;;;;;3.08;1.13;;;;;;;-145.69;53.72;70481.19;5076907;28;20203;-75
2022/05/22 08:48:43;;;;;;;1.50;0.95;;;;;;;-145.69;53.37;70451.34;5076895;28;20252;-75
2022/05/22 08:51:15;;;;;;;1.35;0.85;;;;;;;-145.69;54.13;70463.28;5076730;28;20229;-75
2022/05/22 08:53:48;;;;;;;4.32;0.90;;;;;;;-145.69;53.96;70447.38;5076195;28;20676;-76
2022/05/22 08:59:08;;;;;;;3.03;0.98;;;;;;;-145.69;53.63;70503.06;5076660;28;20237;-76
2022/05/22 09:01:41;;;;;;;1.55;0.77;;;;;;;-145.69;49.66;70471.25;5076119;28;20693;-75
2022/05/22 09:04:19;;;;;;;1.30;0.60;;;;;;;-145.69;49.77;70519.00;5076338;28;20209;-75
2022/05/22 09:06:50;;;;;;;1.80;0.68;;;;;;;-145.69;46.63;70453.34;5076553;28;20206;-74
2022/05/22 09:09:17;;;;;;;4.60;1.00;;;;;;;-145.69;48.26;70481.19;5076323;28;20199;-75
2022/05/22 09:12:00;;;;;;;1.48;0.80;;;;;;;-145.69;47.13;70423.50;5076048;28;20244;-75
2022/05/22 09:14:39;;;;;;;1.75;0.90;;;;;;;-145.69;45.84;70437.44;5076248;28;20206;-76
2022/05/22 09:17:14;;;;;;;1.00;0.60;;;;;;;-145.69;45.16;70419.53;5075859;28;20655;-76
2022/05/22 09:19:44;;;;;;;2.40;0.63;;;;;;;-145.69;46.35;70373.78;5075303;28;20961;-77
2022/05/22 09:22:22;;;;;;;2.15;0.70;;;;;;;-145.69;43.20;70355.88;5075678;28;20661;-75
2022/05/22 09:25:00;;;;;;;1.80;0.80;;;;;;;-145.69;44.02;70377.75;5075879;28;20262;-75
2022/05/22 09:27:39;;;;;;;1.60;0.80;;;;;;;-145.69;43.57;70320.06;5076112;28;20202;-75
2022/05/22 09:30:14;;;;;;;3.67;0.60;;;;;;;-145.69;44.14;70264.34;5075903;28;20720;-75
2022/05/22 09:32:59;;;;;;;1.92;0.88;;;;;;;-145.69;39.61;70200.69;5075657;28;20197;-75
2022/05/22 09:35:34;;;;;;;1.65;0.80;;;;;;;-145.69;39.43;70145.00;5075875;28;20198;-74
2022/05/22 09:38:16;;;;;;;2.35;0.90;;;;;;;-145.69;39.75;70145.00;5076065;28;20607;-75
2022/05/22 09:40:46;;;;;;;1.05;0.35;;;;;;;-145.69;35.62;70129.09;5075524;28;20194;-76
2022/05/22 09:43:37;;;;;;;1.88;0.60;;;;;;;-145.69;37.21;70129.09;5075808;28;20198;-75
2022/05/22 09:46:19;;;;;;;1.30;0.63;;;;;;;-145.69;37.83;70111.19;5075568;28;20232;-76
2022/05/22 09:48:56;;;;;;;2.47;0.70;;;;;;;-145.69;39.09;70139.03;5075807;28;20210;-76
2022/05/22 09:51:31;;;;;;;0.55;0.40;;;;;;;-145.69;37.96;70164.88;5075216;28;20588;-76
2022/05/22 09:54:25;;;;;;;3.22;0.70;;;;;;;-145.69;37.65;70125.09;5065084;28;20527;-75
2022/05/22 09:57:01;;;;;;;1.95;0.60;;;;;;;-145.69;38.37;70107.19;5056465;28;20199;-76
2022/05/22 09:59:42;;;;;;;1.08;0.47;;;;;;;-145.69;36.67;70033.59;5055100;28;20697;-74
2022/05/22 10:02:17;;;;;;;1.38;0.68;;;;;;;-145.69;36.23;70013.72;5068229;28;20192;-75
2022/05/22 10:04:55;;;;;;;1.05;0.50;;;;;;;-145.69;32.43;70049.50;5055636;28;20207;-75
2022/05/22 10:07:29;;;;;;;1.15;0.43;;;;;;;-145.69;34.29;70071.41;5066127;28;20198;-78
2022/05/22 10:10:03;;;;;;;1.25;0.60;;;;;;;-145.69;34.08;70045.53;5054545;28;20574;-78
2022/05/22 10:12:42;;;;;;;1.55;0.52;;;;;;;-145.69;37.09;70049.50;5060852;28;20199;-77
2022/05/22 10:15:24;;;;;;;0.90;0.40;;;;;;;-145.69;32.91;70037.59;5054938;28;20211;-77
2022/05/22 10:18:08;;;;;;;3.03;0.55;;;;;;;-145.69;34.67;70079.34;5055269;28;20200;-76
2022/05/22 10:20:47;;;;;;;2.20;0.57;;;;;;;-145.69;37.96;70061.44;5055169;28;20203;-76
2022/05/22 10:23:21;;;;;;;1.25;0.50;;;;;;;-145.69;35.31;70115.16;5063033;28;20244;-77
2022/05/22 10:25:57;;;;;;;1.05;0.60;;;;;;;-145.69;36.93;70131.06;5075219;28;20259;-75
2022/05/22 10:28:29;;;;;;;2.53;0.55;;;;;;;-145.69;40.78;70065.44;5064167;28;20226;-75
2022/05/22 10:31:00;;;;;;;4.90;0.60;;;;;;;-145.69;37.21;70085.31;5062829;28;20225;-76
2022/05/22 10:33:33;;;;;;;0.90;0.52;;;;;;;-145.69;36.50;70071.41;5074197;28;20209;-76
2022/05/22 10:36:06;;;;;;;1.08;0.57;;;;;;;-145.69;35.37;70101.25;5074797;28;20623;-77
2022/05/22 10:38:38;;;;;;;2.70;0.60;;;;;;;-145.69;36.47;70129.09;5074896;28;20205;-77
2022/05/22 10:44:07;;;;;;;1.83;0.90;;;;;;;-145.69;36.93;69965.97;5054670;28;20222;-77
2022/05/22 10:46:44;;;;;;;1.80;0.52;;;;;;;-145.69;36.64;70017.69;5054607;28;20245;-76
2022/05/22 10:49:12;;;;;;;1.75;0.60;;;;;;;-145.69;36.39;70001.78;5054516;28;20206;-77
2022/05/22 10:51:39;;;;;;;2.03;0.80;;;;;;;-145.69;36.96;70109.19;5055740;28;20276;-78
2022/05/22 10:54:05;;;;;;;0.90;0.68;;;;;;;-145.69;38.75;70125.09;5074380;28;20199;-78
2022/05/22 10:56:33;;;;;;;1.85;0.70;;;;;;;-145.69;40.01;70073.38;5074026;28;20245;-75
2022/05/22 10:59:02;;;;;;;7.13;1.20;;;;;;;-145.69;37.07;70037.59;5074453;28;20218;-76
2022/05/22 11:01:31;;;;;;;1.52;0.65;;;;;;;-145.69;39.45;69989.84;5074192;28;20201;-77
2022/05/22 11:04:03;;;;;;;1.95;0.90;;;;;;;-145.69;40.90;70007.75;5053223;28;20207;-77
2022/05/22 11:06:30;;;;;;;0.82;0.65;;;;;;;-145.69;38.11;69971.94;5054216;28;20294;-77
2022/05/22 11:08:58;;;;;;;1.90;0.65;;;;;;;-145.69;37.70;69967.97;5054078;28;20203;-76
2022/05/22 11:11:28;;;;;;;1.45;0.80;;;;;;;-145.69;37.55;69936.13;5053923;28;20249;-77
2022/05/22 11:14:06;;;;;;;0.85;0.60;;;;;;;-145.69;36.75;69940.13;5073471;28;20205;-77
2022/05/22 11:16:33;;;;;;;0.93;0.60;;;;;;;-145.69;40.04;69888.41;5074018;28;20289;-77
2022/05/22 11:19:08;;;;;;;2.78;0.73;;;;;;;-145.69;38.43;69876.47;5073718;28;20202;-77
2022/05/22 11:21:41;;;;;;;2.38;0.70;;;;;;;-145.69;38.36;69848.63;5073653;28;20221;-77
2022/05/22 11:24:26;;;;;;;0.73;0.50;;;;;;;-145.69;39.35;69806.84;5053426;28;20745;-77
2022/05/22 11:27:06;;;;;;;3.38;0.65;;;;;;;-145.69;36.90;69832.69;5053774;28;20706;-77
2022/05/22 11:30:02;;;;;;;1.58;0.60;;;;;;;-145.69;33.45;69790.94;5053796;28;20283;-78
2022/05/22 11:32:48;;;;;;;1.33;0.65;;;;;;;-145.69;35.78;69826.72;5059906;28;20649;-76
2022/05/22 11:35:32;;;;;;;2.63;0.80;;;;;;;-145.69;37.23;69844.63;5073777;28;20220;-77